createdAt,value
2022-07-28T00:02:30.104Z,68.82
2022-07-28T00:03:29.946Z,69.43
2022-07-28T00:09:29.770Z,70.07
2022-07-28T00:11:29.752Z,70.24
2022-07-28T00:17:29.687Z,68.48
2022-07-28T00:18:29.683Z,69.09
2022-07-28T00:19:29.666Z,69.19
2022-07-28T00:20:29.662Z,69.32
2022-07-28T00:21:29.653Z,69.32
2022-07-28T00:23:38.533Z,70.04
2022-07-28T00:24:30.655Z,70.27
2022-07-28T00:25:29.605Z,70.48
2022-07-28T00:27:29.588Z,70.88
2022-07-28T00:28:29.579Z,70.48
2022-07-28T00:29:50.451Z,70.48
2022-07-28T00:30:30.596Z,70.17
2022-07-28T00:31:29.690Z,69.97
2022-07-28T00:32:29.536Z,69.73
2022-07-28T00:33:29.525Z,68.99
2022-07-28T00:34:35.523Z,68.68
2022-07-28T00:39:29.459Z,67.87
2022-07-28T00:41:31.501Z,68.28
2022-07-28T00:43:29.424Z,68.82
2022-07-28T00:49:29.354Z,70.27
2022-07-28T00:50:29.351Z,70.20
2022-07-28T00:56:35.292Z,72.17
2022-07-28T00:57:29.279Z,72.17
2022-07-28T00:58:29.264Z,71.86
2022-07-28T01:02:29.383Z,72.82
2022-07-28T01:03:29.413Z,73.33
2022-07-28T01:06:30.621Z,73.43
2022-07-28T01:07:29.171Z,73.73
2022-07-28T01:12:31.117Z,75.16
2022-07-28T01:13:32.897Z,75.06
2022-07-28T01:14:29.104Z,75.26
2022-07-28T01:15:29.088Z,75.06
2022-07-28T01:17:31.121Z,75.16
2022-07-28T01:18:29.052Z,74.75
2022-07-28T01:19:35.068Z,74.10
2022-07-28T01:20:29.033Z,74.21
2022-07-28T01:23:29.129Z,74.04
2022-07-28T01:24:28.993Z,73.84
2022-07-28T01:25:28.980Z,74.04
2022-07-28T01:28:28.949Z,75.46
2022-07-28T01:30:28.928Z,75.87
2022-07-28T01:31:29.048Z,75.97
2022-07-28T01:32:34.918Z,76.18
2022-07-28T01:34:28.889Z,75.77
2022-07-28T01:35:28.885Z,75.67
2022-07-28T01:36:28.868Z,76.08
2022-07-28T01:37:28.854Z,75.97
2022-07-28T01:39:28.839Z,76.99
2022-07-28T01:41:28.818Z,76.89
2022-07-28T01:42:28.812Z,76.48
2022-07-28T01:43:28.795Z,76.25
2022-07-28T01:44:28.797Z,76.04
2022-07-28T01:45:28.775Z,76.08
2022-07-28T01:46:28.849Z,76.08
2022-07-28T01:51:28.726Z,77.44
2022-07-28T01:54:28.681Z,78.05
2022-07-28T01:55:28.683Z,78.66
2022-07-28T01:57:28.652Z,79.41
2022-07-28T01:59:28.633Z,79.00
2022-07-28T02:01:28.694Z,79.21
2022-07-28T02:02:28.594Z,79.71
2022-07-28T02:06:28.757Z,80.16
2022-07-28T02:07:28.551Z,80.57
2022-07-28T02:08:28.536Z,80.06
2022-07-28T02:10:28.517Z,79.75
2022-07-28T02:14:28.471Z,80.06
2022-07-28T02:15:28.460Z,79.44
2022-07-28T02:18:28.431Z,78.69
2022-07-28T02:20:28.408Z,79.92
2022-07-28T02:22:28.388Z,79.62
2022-07-28T02:23:28.377Z,78.69
2022-07-28T02:24:28.371Z,78.05
2022-07-28T02:26:28.348Z,76.69
2022-07-28T02:31:03.136Z,75.32
2022-07-28T02:32:03.036Z,74.82
2022-07-28T02:36:02.993Z,74.92
2022-07-28T02:38:02.973Z,74.62
2022-07-28T02:39:02.960Z,74.62
2022-07-28T02:45:02.894Z,72.27
2022-07-28T02:49:02.886Z,72.99
2022-07-28T02:53:15.103Z,72.17
2022-07-28T03:05:02.774Z,75.94
2022-07-28T03:06:02.680Z,75.97
2022-07-28T03:18:02.541Z,77.37
2022-07-28T03:20:02.518Z,77.17
2022-07-28T03:26:02.408Z,77.58
2022-07-28T03:29:02.373Z,78.02
2022-07-28T03:30:04.158Z,78.73
2022-07-28T03:31:02.486Z,79.24
2022-07-28T03:32:02.549Z,79.69
2022-07-28T03:34:02.319Z,80.40
2022-07-28T03:35:02.321Z,80.51
2022-07-28T03:39:02.266Z,80.95
2022-07-28T03:42:02.235Z,81.76
2022-07-28T03:43:08.259Z,81.67
2022-07-28T03:44:02.218Z,81.90
2022-07-28T03:45:08.212Z,82.62
2022-07-28T03:46:02.464Z,83.03
2022-07-28T03:47:02.187Z,83.13
2022-07-28T03:48:02.171Z,83.44
2022-07-28T03:49:02.272Z,83.34
2022-07-28T03:50:02.145Z,83.54
2022-07-28T03:51:02.141Z,83.13
2022-07-28T03:52:02.127Z,83.34
2022-07-28T03:53:02.349Z,83.13
2022-07-28T03:54:02.113Z,82.69
2022-07-28T03:55:02.102Z,81.56
2022-07-28T03:57:02.083Z,80.74
2022-07-28T03:59:02.052Z,80.91
2022-07-28T04:00:06.118Z,80.40
2022-07-28T04:01:04.103Z,80.26
2022-07-28T04:02:02.115Z,80.06
2022-07-28T04:03:02.009Z,80.16
2022-07-28T04:04:01.997Z,79.65
2022-07-28T04:05:01.993Z,79.55
2022-07-28T04:06:01.980Z,79.71
2022-07-28T04:07:01.970Z,79.82
2022-07-28T04:08:01.953Z,79.55
2022-07-28T04:09:01.959Z,79.41
2022-07-28T04:10:01.940Z,79.85
2022-07-28T04:11:01.943Z,80.06
2022-07-28T04:12:01.919Z,79.96
2022-07-28T04:13:01.905Z,80.16
2022-07-28T04:14:01.898Z,79.62
2022-07-28T04:15:01.890Z,79.51
2022-07-28T04:16:01.918Z,79.41
2022-07-28T04:17:01.949Z,80.23
2022-07-28T04:18:03.919Z,80.43
2022-07-28T04:19:01.837Z,80.02
2022-07-28T04:20:01.834Z,80.43
2022-07-28T04:21:01.815Z,80.94
2022-07-28T04:22:01.809Z,81.04
2022-07-28T04:23:02.007Z,80.73
2022-07-28T04:24:02.256Z,80.57
2022-07-28T04:25:01.781Z,80.78
2022-07-28T04:26:01.765Z,79.00
2022-07-28T04:27:01.772Z,79.10
2022-07-28T04:28:01.746Z,78.69
2022-07-28T04:29:03.422Z,77.54
2022-07-28T04:30:01.726Z,78.25
2022-07-28T04:31:01.828Z,76.99
2022-07-28T04:32:01.711Z,75.73
2022-07-28T04:33:01.688Z,76.11
2022-07-28T04:34:01.681Z,75.09
2022-07-28T04:35:01.667Z,74.04
2022-07-28T04:36:01.668Z,74.00
2022-07-28T04:37:01.648Z,74.10
2022-07-28T04:38:01.640Z,74.31
2022-07-28T04:39:01.627Z,73.46
2022-07-28T04:40:01.619Z,72.75
2022-07-28T04:41:01.603Z,72.75
2022-07-28T04:42:01.598Z,72.21
2022-07-28T04:43:01.661Z,72.71
2022-07-28T04:44:01.573Z,72.51
2022-07-28T04:45:01.562Z,70.65
2022-07-28T04:46:01.614Z,71.77
2022-07-28T04:47:01.541Z,71.16
2022-07-28T04:48:01.543Z,71.83
2022-07-28T04:49:01.632Z,71.43
2022-07-28T04:50:01.512Z,70.11
2022-07-28T04:51:01.522Z,68.48
2022-07-28T04:52:01.488Z,68.89
2022-07-28T04:53:01.478Z,69.09
2022-07-28T04:54:03.521Z,69.26
2022-07-28T04:55:01.456Z,69.26
2022-07-28T04:56:01.444Z,70.28
2022-07-28T04:57:03.737Z,69.87
2022-07-28T04:58:02.468Z,69.57
2022-07-28T04:59:01.414Z,67.10
2022-07-28T05:00:01.402Z,67.91
2022-07-28T05:01:01.435Z,69.00
2022-07-28T05:02:01.386Z,66.06
2022-07-28T05:03:01.573Z,67.07
2022-07-28T05:04:01.359Z,66.94
2022-07-28T05:05:01.404Z,66.03
2022-07-28T05:06:01.339Z,67.04
2022-07-28T05:07:01.350Z,66.94
2022-07-28T05:08:02.349Z,67.21
2022-07-28T05:09:01.310Z,65.19
2022-07-28T05:10:01.290Z,65.69
2022-07-28T05:11:01.290Z,65.39
2022-07-28T05:12:01.277Z,64.88
2022-07-28T05:13:01.264Z,64.48
2022-07-28T05:14:01.250Z,65.36
2022-07-28T05:15:01.237Z,65.25
2022-07-28T05:16:01.233Z,64.55
2022-07-28T05:17:01.318Z,65.76
2022-07-28T05:18:01.206Z,65.56
2022-07-28T05:19:01.199Z,64.85
2022-07-28T05:20:03.527Z,65.46
2022-07-28T05:21:01.173Z,65.33
2022-07-28T05:22:01.163Z,64.31
2022-07-28T05:23:01.151Z,64.42
2022-07-28T05:24:01.145Z,63.91
2022-07-28T05:25:01.135Z,64.22
2022-07-28T05:26:07.131Z,63.31
2022-07-28T05:27:01.115Z,63.51
2022-07-28T05:28:01.100Z,64.42
2022-07-28T05:29:01.110Z,64.31
2022-07-28T05:30:01.280Z,64.62
2022-07-28T05:31:01.066Z,64.08
2022-07-28T05:32:04.040Z,63.61
2022-07-28T05:33:01.045Z,62.80
2022-07-28T05:34:01.032Z,63.10
2022-07-28T05:35:01.028Z,63.40
2022-07-28T05:36:07.023Z,63.61
2022-07-28T05:37:01.001Z,64.01
2022-07-28T05:38:00.988Z,62.80
2022-07-28T05:39:00.987Z,63.58
2022-07-28T05:40:00.972Z,63.28
2022-07-28T05:41:00.980Z,62.16
2022-07-28T05:42:00.948Z,62.16
2022-07-28T05:43:00.943Z,62.67
2022-07-28T05:44:00.931Z,61.76
2022-07-28T05:45:00.925Z,62.06
2022-07-28T05:46:06.984Z,62.16
2022-07-28T05:47:00.895Z,62.46
2022-07-28T05:48:00.888Z,61.63
2022-07-28T05:49:01.170Z,61.23
2022-07-28T05:50:00.863Z,61.43
2022-07-28T05:51:06.865Z,62.20
2022-07-28T05:52:00.848Z,60.08
2022-07-28T05:53:00.832Z,60.49
2022-07-28T05:54:00.819Z,60.16
2022-07-28T05:55:00.811Z,59.96
2022-07-28T05:56:01.898Z,60.13
2022-07-28T05:57:00.789Z,58.08
2022-07-28T05:58:00.782Z,59.29
2022-07-28T05:59:00.770Z,58.96
2022-07-28T06:00:00.757Z,58.63
2022-07-28T06:01:00.805Z,56.71
2022-07-28T06:02:01.027Z,59.11
2022-07-28T06:03:00.735Z,56.67
2022-07-28T06:04:27.256Z,56.89
2022-07-28T06:05:01.739Z,53.94
2022-07-28T06:06:14.902Z,56.15
2022-07-28T06:07:01.725Z,55.65
2022-07-28T06:08:00.673Z,54.12
2022-07-28T06:09:06.666Z,54.55
2022-07-28T06:10:00.646Z,53.44
2022-07-28T06:11:00.638Z,54.24
2022-07-28T06:12:00.638Z,54.27
2022-07-28T06:13:06.627Z,54.57
2022-07-28T06:14:00.613Z,53.67
2022-07-28T06:15:00.598Z,53.97
2022-07-28T06:16:00.632Z,53.97
2022-07-28T06:17:00.603Z,53.97
2022-07-28T06:18:00.561Z,54.19
2022-07-28T06:19:00.555Z,54.50
2022-07-28T06:20:00.539Z,55.20
2022-07-28T06:21:00.540Z,54.60
2022-07-28T06:22:00.528Z,54.40
2022-07-28T06:23:00.521Z,53.90
2022-07-28T06:24:00.502Z,54.10
2022-07-28T06:25:00.489Z,54.40
2022-07-28T06:26:00.479Z,55.40
2022-07-28T06:27:00.467Z,54.19
2022-07-28T06:28:00.457Z,53.29
2022-07-28T06:29:00.444Z,53.99
2022-07-28T06:30:00.432Z,54.43
2022-07-28T06:31:00.437Z,55.10
2022-07-28T06:32:00.452Z,53.92
2022-07-28T06:33:00.404Z,54.55
2022-07-28T06:34:00.393Z,55.26
2022-07-28T06:35:00.385Z,55.83
2022-07-28T06:36:00.399Z,55.63
2022-07-28T06:37:00.363Z,55.26
2022-07-28T06:38:00.371Z,54.73
2022-07-28T06:39:00.361Z,55.13
2022-07-28T06:40:00.341Z,54.32
2022-07-28T06:41:00.331Z,54.93
2022-07-28T06:42:00.309Z,55.43
2022-07-28T06:43:00.303Z,54.52
2022-07-28T06:44:00.283Z,55.83
2022-07-28T06:45:00.394Z,54.60
2022-07-28T06:46:00.270Z,54.52
2022-07-28T06:47:00.367Z,54.19
2022-07-28T06:48:00.242Z,54.80
2022-07-28T06:49:00.302Z,54.10
2022-07-28T06:50:00.223Z,53.79
2022-07-28T06:51:00.227Z,54.30
2022-07-28T06:52:00.194Z,54.80
2022-07-28T06:53:00.271Z,55.38
2022-07-28T06:54:00.179Z,53.87
2022-07-28T06:55:00.164Z,53.57
2022-07-28T06:56:00.152Z,54.15
2022-07-28T06:57:00.144Z,54.24
2022-07-28T06:58:00.128Z,54.44
2022-07-28T06:59:00.125Z,53.85
2022-07-28T07:00:00.313Z,53.44
2022-07-28T07:01:00.267Z,53.54
2022-07-28T07:02:00.095Z,54.32
2022-07-28T07:03:00.864Z,53.52
2022-07-28T07:04:00.205Z,53.90
2022-07-28T07:05:00.071Z,53.19
2022-07-28T07:06:00.042Z,51.89
2022-07-28T07:07:00.041Z,52.99
2022-07-28T07:08:06.037Z,53.29
2022-07-28T07:09:00.013Z,51.48
2022-07-28T07:10:00.005Z,52.81
2022-07-28T07:10:59.992Z,53.61
2022-07-28T07:12:00.139Z,51.91
2022-07-28T07:12:59.977Z,52.34
2022-07-28T07:14:05.965Z,52.31
2022-07-28T07:14:59.946Z,52.11
2022-07-28T07:16:00.221Z,52.29
2022-07-28T07:16:59.927Z,52.79
2022-07-28T07:17:59.970Z,51.39
2022-07-28T07:18:59.903Z,52.31
2022-07-28T07:19:59.893Z,52.09
2022-07-28T07:21:05.890Z,53.09
2022-07-28T07:21:59.873Z,52.36
2022-07-28T07:22:59.858Z,52.46
2022-07-28T07:23:59.853Z,51.34
2022-07-28T07:24:59.840Z,51.03
2022-07-28T07:25:59.831Z,51.73
2022-07-28T07:26:59.822Z,51.53
2022-07-28T07:27:59.813Z,51.03
2022-07-28T07:29:05.804Z,50.53
2022-07-28T07:29:59.787Z,50.33
2022-07-28T07:30:59.794Z,50.76
2022-07-28T07:31:59.779Z,50.26
2022-07-28T07:32:59.755Z,52.06
2022-07-28T07:33:59.947Z,51.66
2022-07-28T07:34:59.736Z,51.58
2022-07-28T07:35:59.927Z,52.01
2022-07-28T07:36:59.713Z,52.81
2022-07-28T07:37:59.706Z,52.41
2022-07-28T07:38:59.889Z,52.21
2022-07-28T07:39:59.678Z,52.19
2022-07-28T07:40:59.665Z,51.91
2022-07-28T07:41:59.656Z,51.69
2022-07-28T07:42:59.706Z,51.86
2022-07-28T07:43:59.633Z,50.81
2022-07-28T07:44:59.626Z,48.59
2022-07-28T07:45:59.820Z,45.16
2022-07-28T07:46:59.674Z,42.65
2022-07-28T07:47:59.590Z,40.83
2022-07-28T07:48:59.669Z,41.75
2022-07-28T07:50:03.712Z,42.02
2022-07-28T07:50:59.562Z,40.69
2022-07-28T07:51:59.610Z,39.33
2022-07-28T07:52:59.541Z,40.82
2022-07-28T07:54:05.544Z,41.19
2022-07-28T07:54:59.517Z,39.50
2022-07-28T07:56:05.512Z,39.52
2022-07-28T07:56:59.503Z,41.94
2022-07-28T07:57:59.691Z,40.12
2022-07-28T07:58:59.472Z,39.60
2022-07-28T07:59:59.461Z,39.78
2022-07-28T08:00:59.459Z,39.90
2022-07-28T08:01:59.527Z,41.33
2022-07-28T08:02:59.435Z,41.09
2022-07-28T08:03:59.450Z,42.23
2022-07-28T08:04:59.471Z,43.64
2022-07-28T08:05:59.412Z,43.20
2022-07-28T08:06:59.394Z,42.49
2022-07-28T08:07:59.379Z,41.47
2022-07-28T08:08:59.380Z,41.55
2022-07-28T08:10:05.371Z,41.85
2022-07-28T08:10:59.348Z,41.35
2022-07-28T08:11:59.339Z,41.77
2022-07-28T08:12:59.325Z,41.75
2022-07-28T08:13:59.316Z,41.05
2022-07-28T08:14:59.305Z,40.96
2022-07-28T08:15:59.395Z,41.65
2022-07-28T08:16:59.379Z,41.85
2022-07-28T08:17:59.276Z,40.82
2022-07-28T08:18:59.266Z,40.48
2022-07-28T08:19:59.256Z,38.45
2022-07-28T08:20:59.240Z,38.03
2022-07-28T08:21:59.232Z,37.81
2022-07-28T08:22:59.222Z,38.80
2022-07-28T08:23:59.217Z,38.37
2022-07-28T08:24:59.199Z,40.80
2022-07-28T08:25:59.198Z,40.08
2022-07-28T08:26:59.177Z,40.46
2022-07-28T08:27:59.167Z,38.85
2022-07-28T08:28:59.162Z,40.04
2022-07-28T08:29:59.151Z,38.97
2022-07-28T08:30:59.204Z,39.07
2022-07-28T08:31:59.130Z,39.88
2022-07-28T08:32:59.123Z,39.98
2022-07-28T08:33:59.107Z,41.07
2022-07-28T08:35:22.690Z,40.08
2022-07-28T08:35:59.090Z,39.45
2022-07-28T08:36:59.083Z,39.35
2022-07-28T08:37:59.074Z,39.01
2022-07-28T08:38:59.064Z,38.32
2022-07-28T08:39:59.046Z,38.48
2022-07-28T08:40:59.042Z,40.00
2022-07-28T08:41:59.033Z,40.83
2022-07-28T08:42:59.013Z,40.80
2022-07-28T08:43:59.002Z,39.25
2022-07-28T08:44:58.987Z,37.70
2022-07-28T08:45:58.989Z,32.61
2022-07-28T08:46:59.064Z,32.42
2022-07-28T08:48:08.315Z,33.98
2022-07-28T08:49:00.055Z,35.19
2022-07-28T08:49:58.940Z,36.45
2022-07-28T08:50:58.931Z,36.74
2022-07-28T08:51:58.924Z,37.18
2022-07-28T08:52:58.912Z,37.99
2022-07-28T08:53:58.902Z,39.43
2022-07-28T08:54:58.883Z,39.53
2022-07-28T08:55:58.884Z,39.53
2022-07-28T08:56:58.872Z,39.86
2022-07-28T08:57:58.855Z,41.09
2022-07-28T08:58:58.848Z,41.05
2022-07-28T08:59:58.834Z,38.09
2022-07-28T09:00:58.828Z,36.93
2022-07-28T09:01:58.869Z,36.09
2022-07-28T09:02:58.884Z,35.51
2022-07-28T09:03:58.795Z,35.38
2022-07-28T09:04:58.786Z,34.85
2022-07-28T09:05:58.777Z,31.95
2022-07-28T09:06:58.759Z,31.29
2022-07-28T09:07:58.765Z,28.91
2022-07-28T09:08:58.746Z,28.61
2022-07-28T09:10:02.842Z,28.82
2022-07-28T09:10:58.717Z,29.53
2022-07-28T09:11:58.714Z,30.00
2022-07-28T09:13:00.758Z,30.80
2022-07-28T09:13:58.692Z,29.32
2022-07-28T09:14:58.883Z,28.59
2022-07-28T09:15:58.752Z,28.24
2022-07-28T09:16:58.662Z,26.06
2022-07-28T09:17:58.649Z,26.70
2022-07-28T09:18:58.860Z,25.11
2022-07-28T09:19:58.630Z,26.05
2022-07-28T09:20:58.621Z,25.04
2022-07-28T09:22:04.632Z,25.33
2022-07-28T09:22:58.600Z,26.56
2022-07-28T09:23:58.590Z,27.12
2022-07-28T09:24:58.579Z,26.41
2022-07-28T09:25:58.567Z,26.26
2022-07-28T09:26:58.563Z,27.06
2022-07-28T09:27:58.551Z,28.09
2022-07-28T09:28:58.752Z,28.63
2022-07-28T09:29:58.529Z,26.85
2022-07-28T09:30:58.580Z,26.90
2022-07-28T09:31:58.549Z,26.12
2022-07-28T09:32:58.707Z,25.94
2022-07-28T09:34:00.550Z,26.11
2022-07-28T09:34:58.480Z,24.80
2022-07-28T09:35:58.477Z,25.38
2022-07-28T09:36:58.472Z,24.85
2022-07-28T09:37:58.457Z,24.43
2022-07-28T09:38:58.446Z,23.79
2022-07-28T09:39:58.441Z,24.90
2022-07-28T09:44:14.549Z,25.91
2022-07-28T09:45:23.380Z,27.58
2022-07-28T09:46:15.251Z,28.84
2022-07-28T09:47:14.223Z,27.87
2022-07-28T09:48:14.374Z,29.93
2022-07-28T09:49:14.199Z,31.84
2022-07-28T09:50:14.040Z,32.17
2022-07-28T09:51:20.032Z,31.87
2022-07-28T09:52:14.021Z,32.05
2022-07-28T09:53:14.007Z,30.95
2022-07-28T09:54:14.636Z,28.03
2022-07-28T09:55:13.993Z,27.52
2022-07-28T09:56:19.984Z,26.61
2022-07-28T09:57:13.975Z,26.42
2022-07-28T09:58:13.963Z,27.63
2022-07-28T09:59:15.001Z,29.27
2022-07-28T10:00:13.947Z,30.51
2022-07-28T10:01:14.017Z,30.59
2022-07-28T10:02:14.114Z,30.68
2022-07-28T10:03:14.020Z,30.49
2022-07-28T10:04:14.141Z,30.17
2022-07-28T10:05:13.903Z,31.22
2022-07-28T10:06:13.899Z,32.72
2022-07-28T10:07:13.886Z,31.81
2022-07-28T10:08:13.878Z,31.07
2022-07-28T10:09:13.865Z,29.75
2022-07-28T10:10:13.865Z,30.38
2022-07-28T10:11:13.847Z,31.50
2022-07-28T10:12:13.841Z,30.80
2022-07-28T10:13:13.840Z,30.68
2022-07-28T10:14:14.261Z,30.77
2022-07-28T10:15:13.812Z,30.80
2022-07-28T10:16:13.866Z,31.48
2022-07-28T10:17:13.804Z,31.39
2022-07-28T10:18:13.796Z,30.05
2022-07-28T10:19:13.787Z,30.46
2022-07-28T10:20:13.787Z,30.88
2022-07-28T10:21:13.782Z,32.06
2022-07-28T10:22:13.759Z,33.95
2022-07-28T10:23:13.750Z,32.72
2022-07-28T10:24:14.043Z,31.90
2022-07-28T10:25:19.749Z,31.60
2022-07-28T10:26:13.715Z,30.48
2022-07-28T10:27:13.714Z,31.19
2022-07-28T10:28:13.704Z,31.60
2022-07-28T10:29:13.698Z,32.31
2022-07-28T10:30:13.682Z,33.05
2022-07-28T10:31:13.733Z,32.73
2022-07-28T10:32:13.668Z,33.23
2022-07-28T10:33:13.658Z,33.65
2022-07-28T10:34:16.311Z,33.77
2022-07-28T10:35:13.646Z,33.65
2022-07-28T10:36:13.634Z,33.96
2022-07-28T10:37:13.623Z,32.72
2022-07-28T10:38:14.061Z,33.13
2022-07-28T10:39:13.605Z,33.44
2022-07-28T10:40:13.594Z,33.77
2022-07-28T10:41:13.588Z,32.67
2022-07-28T10:42:13.583Z,31.93
2022-07-28T10:43:13.570Z,30.90
2022-07-28T10:44:13.949Z,31.51
2022-07-28T10:45:13.550Z,31.99
2022-07-28T10:46:16.283Z,32.00
2022-07-28T10:47:18.483Z,31.82
2022-07-28T10:48:14.563Z,31.79
2022-07-28T10:49:13.554Z,32.02
2022-07-28T10:50:13.508Z,32.29
2022-07-28T10:51:13.506Z,31.07
2022-07-28T10:52:30.906Z,31.43
2022-07-28T10:53:14.517Z,32.00
2022-07-28T10:54:17.726Z,32.05
2022-07-28T10:55:14.512Z,33.34
2022-07-28T10:56:13.456Z,33.55
2022-07-28T10:57:13.448Z,34.49
2022-07-28T10:58:13.439Z,34.27
2022-07-28T10:59:13.430Z,34.67
2022-07-28T11:00:15.552Z,34.36
2022-07-28T11:01:32.501Z,33.69
2022-07-28T11:02:14.564Z,33.98
2022-07-28T11:03:14.386Z,34.67
2022-07-28T11:04:13.669Z,34.46
2022-07-28T11:05:13.375Z,33.86
2022-07-28T11:06:13.370Z,34.25
2022-07-28T11:07:13.355Z,34.25
2022-07-28T11:08:13.345Z,34.37
2022-07-28T11:09:13.339Z,34.94
2022-07-28T11:10:13.546Z,34.36
2022-07-28T11:11:13.319Z,33.64
2022-07-28T11:12:13.311Z,34.34
2022-07-28T11:13:14.298Z,34.75
2022-07-28T11:14:13.698Z,34.24
2022-07-28T11:15:15.596Z,33.75
2022-07-28T11:16:13.406Z,33.91
2022-07-28T11:17:13.432Z,32.82
2022-07-28T11:18:13.256Z,32.98
2022-07-28T11:19:36.826Z,32.26
2022-07-28T11:20:29.830Z,31.37
2022-07-28T11:21:14.263Z,30.66
2022-07-28T11:22:13.215Z,30.46
2022-07-28T11:23:13.212Z,31.06
2022-07-28T11:24:13.555Z,31.34
2022-07-28T11:25:20.797Z,30.74
2022-07-28T11:26:13.184Z,29.32
2022-07-28T11:27:13.382Z,30.31
2022-07-28T11:28:13.169Z,28.75
2022-07-28T11:29:13.157Z,28.13
2022-07-28T11:30:13.386Z,26.86
2022-07-28T11:31:13.268Z,26.76
2022-07-28T11:32:13.140Z,27.94
2022-07-28T11:33:13.333Z,28.96
2022-07-28T11:34:13.392Z,31.60
2022-07-28T11:35:13.107Z,32.61
2022-07-28T11:36:13.106Z,33.29
2022-07-28T11:37:15.273Z,32.70
2022-07-28T11:38:13.095Z,34.22
2022-07-28T11:39:19.081Z,34.44
2022-07-28T11:40:13.151Z,34.22
2022-07-28T11:41:13.057Z,33.93
2022-07-28T11:42:13.055Z,34.71
2022-07-28T11:43:13.041Z,34.50
2022-07-28T11:44:13.329Z,34.17
2022-07-28T11:45:19.034Z,33.60
2022-07-28T11:46:13.080Z,33.21
2022-07-28T11:47:13.004Z,33.99
2022-07-28T11:48:12.998Z,33.33
2022-07-28T11:49:14.913Z,34.24
2022-07-28T11:50:13.139Z,34.46
2022-07-28T11:51:12.977Z,34.98
2022-07-28T11:52:12.964Z,35.87
2022-07-28T11:53:19.021Z,35.57
2022-07-28T11:54:13.160Z,36.18
2022-07-28T11:55:12.935Z,36.57
2022-07-28T11:56:12.932Z,35.33
2022-07-28T11:57:13.774Z,33.78
2022-07-28T11:58:12.913Z,33.47
2022-07-28T11:59:14.960Z,33.24
2022-07-28T12:00:12.895Z,32.65
2022-07-28T12:01:13.630Z,32.65
2022-07-28T12:02:12.924Z,31.89
2022-07-28T12:03:12.867Z,32.97
2022-07-28T12:04:13.536Z,32.41
2022-07-28T12:05:13.186Z,33.18
2022-07-28T12:06:12.838Z,32.46
2022-07-28T12:07:12.841Z,32.18
2022-07-28T12:08:12.855Z,32.87
2022-07-28T12:09:47.525Z,32.65
2022-07-28T12:10:55.884Z,33.29
2022-07-28T12:11:48.923Z,33.60
2022-07-28T12:12:47.486Z,34.44
2022-07-28T12:13:47.667Z,35.16
2022-07-28T12:14:47.455Z,35.06
2022-07-28T12:15:47.446Z,36.16
2022-07-28T12:16:47.503Z,35.26
2022-07-28T12:17:47.430Z,35.24
2022-07-28T12:18:47.425Z,34.85
2022-07-28T12:19:47.417Z,35.04
2022-07-28T12:20:53.410Z,35.33
2022-07-28T12:21:48.242Z,35.55
2022-07-28T12:22:47.386Z,35.87
2022-07-28T12:23:49.632Z,36.37
2022-07-28T12:24:47.418Z,36.76
2022-07-28T12:25:47.355Z,37.08
2022-07-28T12:26:49.446Z,37.39
2022-07-28T12:27:47.335Z,37.18
2022-07-28T12:28:47.327Z,37.96
2022-07-28T12:29:49.330Z,37.28
2022-07-28T12:30:47.312Z,36.87
2022-07-28T12:31:47.349Z,36.96
2022-07-28T12:32:47.293Z,37.85
2022-07-28T12:33:47.290Z,37.45
2022-07-28T12:34:47.280Z,37.14
2022-07-28T12:35:47.265Z,36.24
2022-07-28T12:36:47.253Z,36.24
2022-07-28T12:37:47.249Z,36.24
2022-07-28T12:38:47.238Z,36.63
2022-07-28T12:39:47.222Z,36.12
2022-07-28T12:40:47.217Z,35.11
2022-07-28T12:41:47.203Z,35.93
2022-07-28T12:42:52.098Z,35.79
2022-07-28T12:43:48.429Z,34.57
2022-07-28T12:44:47.179Z,33.24
2022-07-28T12:45:47.210Z,32.72
2022-07-28T12:46:47.163Z,31.40
2022-07-28T12:47:47.556Z,31.83
2022-07-28T12:48:47.224Z,32.71
2022-07-28T12:49:47.138Z,32.32
2022-07-28T12:50:47.119Z,34.04
2022-07-28T12:51:47.115Z,33.88
2022-07-28T12:52:47.111Z,35.11
2022-07-28T12:53:47.293Z,35.19
2022-07-28T12:54:53.312Z,34.78
2022-07-28T12:55:48.121Z,34.58
2022-07-28T12:56:47.068Z,35.02
2022-07-28T12:57:50.493Z,33.11
2022-07-28T12:58:47.051Z,32.79
2022-07-28T12:59:47.282Z,32.22
2022-07-28T13:00:47.132Z,32.62
2022-07-28T13:01:47.027Z,33.00
2022-07-28T13:02:47.208Z,32.11
2022-07-28T13:03:53.797Z,31.31
2022-07-28T13:04:47.022Z,31.39
2022-07-28T13:05:46.994Z,32.09
2022-07-28T13:06:47.186Z,31.79
2022-07-28T13:07:46.977Z,32.32
2022-07-28T13:08:47.017Z,32.42
2022-07-28T13:09:53.193Z,32.56
2022-07-28T13:10:47.982Z,33.55
2022-07-28T13:11:47.702Z,33.06
2022-07-28T13:12:46.929Z,33.98
2022-07-28T13:13:46.927Z,34.29
2022-07-28T13:14:46.912Z,35.29
2022-07-28T13:15:50.694Z,35.05
2022-07-28T13:16:47.204Z,34.86
2022-07-28T13:17:46.889Z,34.68
2022-07-28T13:18:46.887Z,34.27
2022-07-28T13:19:46.871Z,34.78
2022-07-28T13:20:46.866Z,35.27
2022-07-28T13:21:57.635Z,35.38
2022-07-28T13:22:48.846Z,35.19
2022-07-28T13:23:47.039Z,34.58
2022-07-28T13:24:46.836Z,35.27
2022-07-28T13:25:46.821Z,34.68
2022-07-28T13:26:46.818Z,35.17
2022-07-28T13:27:52.244Z,34.78
2022-07-28T13:28:48.794Z,35.07
2022-07-28T13:29:46.789Z,34.81
2022-07-28T13:30:46.776Z,35.81
2022-07-28T13:31:46.908Z,35.79
2022-07-28T13:32:46.839Z,35.79
2022-07-28T13:33:46.952Z,35.52
2022-07-28T13:34:46.740Z,36.01
2022-07-28T13:35:46.757Z,35.30
2022-07-28T13:36:46.734Z,35.52
2022-07-28T13:37:46.717Z,35.42
2022-07-28T13:38:46.705Z,35.38
2022-07-28T13:39:50.738Z,35.58
2022-07-28T13:40:47.729Z,34.99
2022-07-28T13:41:57.660Z,35.09
2022-07-28T13:42:53.196Z,34.89
2022-07-28T13:43:48.289Z,34.81
2022-07-28T13:44:46.862Z,36.09
2022-07-28T13:45:46.684Z,35.69
2022-07-28T13:46:52.644Z,35.62
2022-07-28T13:47:46.625Z,35.81
2022-07-28T13:48:57.635Z,35.62
2022-07-28T13:49:46.655Z,36.01
2022-07-28T13:50:46.601Z,36.50
2022-07-28T13:51:46.587Z,35.69
2022-07-28T13:52:46.586Z,35.48
2022-07-28T13:53:46.570Z,34.94
2022-07-28T13:54:46.567Z,33.85
2022-07-28T13:55:46.560Z,34.16
2022-07-28T13:56:46.556Z,33.98
2022-07-28T13:57:46.541Z,34.45
2022-07-28T13:58:46.536Z,34.47
2022-07-28T13:59:46.533Z,35.15
2022-07-28T14:00:46.608Z,33.74
2022-07-28T14:01:49.816Z,33.60
2022-07-28T14:02:46.561Z,33.30
2022-07-28T14:03:55.923Z,32.30
2022-07-28T14:04:50.002Z,33.31
2022-07-28T14:05:46.461Z,32.20
2022-07-28T14:06:46.461Z,32.20
2022-07-28T14:07:48.249Z,31.79
2022-07-28T14:08:48.026Z,31.68
2022-07-28T14:09:46.430Z,31.89
2022-07-28T14:10:48.363Z,32.53
2022-07-28T14:11:49.787Z,32.36
2022-07-28T14:12:46.755Z,33.29
2022-07-28T14:13:46.396Z,33.60
2022-07-28T14:14:47.834Z,34.01
2022-07-28T14:15:46.381Z,34.22
2022-07-28T14:16:47.771Z,34.52
2022-07-28T14:17:46.621Z,33.99
2022-07-28T14:18:52.368Z,33.39
2022-07-28T14:20:21.037Z,33.06
2022-07-28T14:21:27.030Z,31.78
2022-07-28T14:22:23.079Z,31.31
2022-07-28T14:23:21.014Z,32.20
2022-07-28T14:24:21.001Z,33.21
2022-07-28T14:25:21.781Z,33.70
2022-07-28T14:26:35.562Z,34.44
2022-07-28T14:27:25.935Z,34.75
2022-07-28T14:28:28.970Z,35.54
2022-07-28T14:29:20.949Z,35.32
2022-07-28T14:30:20.950Z,35.02
2022-07-28T14:31:20.987Z,34.73
2022-07-28T14:32:20.922Z,34.81
2022-07-28T14:33:21.113Z,35.12
2022-07-28T14:34:20.907Z,35.62
2022-07-28T14:35:20.893Z,36.20
2022-07-28T14:36:20.888Z,35.79
2022-07-28T14:37:20.880Z,36.41
2022-07-28T14:38:52.272Z,36.51
2022-07-28T14:39:27.901Z,36.32
2022-07-28T14:40:26.856Z,35.81
2022-07-28T14:41:20.840Z,35.62
2022-07-28T14:42:20.832Z,35.77
2022-07-28T14:43:20.824Z,34.99
2022-07-28T14:44:24.302Z,35.27
2022-07-28T14:45:20.810Z,34.40
2022-07-28T14:46:22.015Z,35.38
2022-07-28T14:47:21.090Z,35.68
2022-07-28T14:48:26.786Z,35.29
2022-07-28T14:49:20.927Z,34.80
2022-07-28T14:50:20.758Z,35.15
2022-07-28T14:51:20.751Z,34.88
2022-07-28T14:52:20.746Z,35.07
2022-07-28T14:53:20.733Z,34.97
2022-07-28T14:54:20.721Z,35.09
2022-07-28T14:55:20.728Z,34.91
2022-07-28T14:56:20.909Z,35.30
2022-07-28T14:57:21.098Z,36.10
2022-07-28T14:58:20.689Z,36.02
2022-07-28T14:59:20.675Z,36.20
2022-07-28T15:00:20.666Z,35.99
2022-07-28T15:01:20.718Z,35.21
2022-07-28T15:02:20.823Z,35.50
2022-07-28T15:03:22.735Z,35.60